Time;durP1;ratioP1;P1;durP2;ratioP2;P2;SDS_P1;SDS_P2;PMS_P1;PMS_P2;Temp;Humidity;BMP_temperature;BMP_pressure;BME280_temperature;BME280_humidity;BME280_pressure;Samples;Min_cycle;Max_cycle;Signal;HPM_P1;HPM_P2
2022/05/26 00:00:07;;;;;;;32.35;7.80;;;13.70;99.90;;;;;;5052988;28;20602;-48
2022/05/26 00:02:35;;;;;;;32.72;7.10;;;13.80;99.90;;;;;;5051955;28;20043;-45
2022/05/26 00:05:00;;;;;;;35.67;7.53;;;13.90;99.90;;;;;;5051999;28;21495;-43
2022/05/26 00:07:26;;;;;;;27.10;7.47;;;13.80;99.90;;;;;;5052694;28;20109;-45
2022/05/26 00:09:53;;;;;;;37.53;8.40;;;14.70;99.90;;;;;;5051531;28;20055;-45
2022/05/26 00:12:19;;;;;;;33.47;8.68;;;13.80;99.90;;;;;;5050121;28;20049;-46
2022/05/26 00:14:45;;;;;;;41.78;7.05;;;14.80;99.90;;;;;;5052454;28;20298;-48
2022/05/26 00:17:12;;;;;;;39.38;8.80;;;13.70;99.90;;;;;;5051865;28;20037;-45
2022/05/26 00:19:38;;;;;;;37.15;7.72;;;13.80;99.90;;;;;;5052087;28;20091;-43
2022/05/26 00:22:04;;;;;;;31.27;8.00;;;15.50;99.90;;;;;;5052468;28;20036;-45
2022/05/26 00:24:30;;;;;;;34.85;7.28;;;13.90;99.90;;;;;;5052371;28;20040;-52
2022/05/26 00:26:55;;;;;;;37.13;8.25;;;13.60;99.90;;;;;;5051512;28;20040;-48
2022/05/26 00:29:21;;;;;;;31.02;7.95;;;14.90;99.90;;;;;;5053537;28;20049;-49
2022/05/26 00:31:47;;;;;;;38.70;8.65;;;14.40;99.90;;;;;;5052814;28;20041;-47
2022/05/26 00:34:13;;;;;;;31.52;6.97;;;13.60;99.90;;;;;;5052878;28;20378;-43
2022/05/26 00:36:39;;;;;;;31.20;7.70;;;14.60;99.90;;;;;;5051065;28;20569;-43
2022/05/26 00:39:24;;;;;;;34.45;7.85;;;13.60;99.90;;;;;;5051558;28;20584;-43
2022/05/26 00:41:54;;;;;;;41.67;8.68;;;13.50;99.90;;;;;;5053092;28;20043;-44
2022/05/26 00:44:21;;;;;;;39.80;9.05;;;14.10;99.90;;;;;;5052065;28;21024;-44
2022/05/26 00:47:14;;;;;;;35.40;8.40;;;14.60;99.90;;;;;;5051915;28;20570;-45
2022/05/26 00:49:59;;;;;;;35.22;8.43;;;13.70;99.90;;;;;;5051367;28;20052;-45
2022/05/26 00:52:42;;;;;;;31.42;7.45;;;13.40;99.90;;;;;;5052736;28;20219;-44
2022/05/26 00:55:35;;;;;;;38.70;8.40;;;13.50;99.90;;;;;;5056957;28;20071;-49
2022/05/26 00:58:07;;;;;;;38.35;7.53;;;13.50;99.90;;;;;;5054454;28;20079;-44
2022/05/26 01:00:34;;;;;;;;;;;14.10;99.90;;;;;;5056671;28;20048;-45
2022/05/26 01:03:08;;;;;;;37.67;8.00;;;13.60;99.90;;;;;;5055209;28;19931;-43
2022/05/26 01:05:48;;;;;;;35.83;8.13;;;15.40;99.90;;;;;;5055838;28;20047;-47
2022/05/26 01:08:28;;;;;;;32.85;7.40;;;13.40;99.90;;;;;;5054680;28;20036;-45
2022/05/26 01:10:54;;;;;;;39.05;8.15;;;13.50;99.90;;;;;;5055186;28;20037;-50
2022/05/26 01:13:21;;;;;;;31.80;7.20;;;15.20;99.90;;;;;;5054379;28;20035;-47
2022/05/26 01:15:57;;;;;;;31.92;7.47;;;15.10;99.90;;;;;;5053800;28;20045;-46
2022/05/26 01:18:38;;;;;;;33.65;7.00;;;13.40;99.90;;;;;;5054020;28;20139;-44
2022/05/26 01:21:35;;;;;;;31.08;6.18;;;13.40;99.90;;;;;;5055674;28;20043;-44
2022/05/26 01:24:27;;;;;;;34.50;7.45;;;13.40;99.90;;;;;;5054539;28;20127;-45
2022/05/26 01:27:36;;;;;;;35.80;7.20;;;13.50;99.90;;;;;;5054192;28;20037;-44
2022/05/26 01:30:07;;;;;;;36.50;7.00;;;13.40;99.90;;;;;;5052038;28;20145;-45
2022/05/26 01:33:03;;;;;;;30.95;6.35;;;13.40;99.90;;;;;;5050615;28;20048;-46
2022/05/26 01:35:51;;;;;;;29.90;6.75;;;13.50;99.90;;;;;;5051848;28;20048;-45
2022/05/26 01:38:36;;;;;;;34.75;9.25;;;13.50;99.90;;;;;;5051035;28;20982;-44
2022/05/26 01:41:20;;;;;;;44.53;9.30;;;14.20;99.90;;;;;;5011125;28;20049;-47
2022/05/26 01:44:33;;;;;;;34.13;7.30;;;13.30;99.90;;;;;;5011248;28;20053;-45
2022/05/26 01:47:06;;;;;;;37.58;7.70;;;13.40;99.90;;;;;;4936057;28;20069;-44
2022/05/26 01:49:46;;;;;;;42.97;9.38;;;15.10;99.90;;;;;;4935500;28;20160;-47
2022/05/26 01:52:27;;;;;;;40.88;8.02;;;13.40;99.90;;;;;;4936458;28;20836;-47
2022/05/26 01:55:06;;;;;;;44.45;8.48;;;13.30;99.90;;;;;;4936013;28;20051;-47
2022/05/26 01:57:45;;;;;;;42.33;9.50;;;13.40;99.90;;;;;;4934012;28;20836;-46
2022/05/26 02:00:18;;;;;;;34.30;8.95;;;13.30;99.90;;;;;;4933949;28;20761;-47
2022/05/26 02:02:58;;;;;;;30.80;8.35;;;13.40;99.90;;;;;;4934578;28;20042;-47
2022/05/26 02:05:28;;;;;;;37.83;8.40;;;13.40;99.90;;;;;;4923919;28;20056;-46
2022/05/26 02:08:12;;;;;;;35.88;6.60;;;13.50;99.90;;;;;;4913647;29;20106;-48
2022/05/26 02:10:50;;;;;;;36.60;6.45;;;13.40;99.90;;;;;;4912560;29;20064;-49
2022/05/26 02:13:26;;;;;;;35.97;7.20;;;13.40;99.90;;;;;;4914307;29;20094;-44
2022/05/26 02:16:00;;;;;;;47.00;6.93;;;15.20;99.90;;;;;;4914395;29;20051;-48
2022/05/26 02:18:52;;;;;;;36.05;7.63;;;13.40;99.90;;;;;;4940953;28;20515;-48
2022/05/26 02:21:28;;;;;;;;;;;13.30;99.90;;;;;;4971778;28;21070;-44
2022/05/26 02:24:08;;;;;;;29.73;7.20;;;13.30;99.90;;;;;;5038444;28;20343;-50
2022/05/26 02:26:36;;;;;;;33.88;7.15;;;13.30;99.90;;;;;;5054146;28;20771;-44
2022/05/26 02:31:49;;;;;;;32.70;7.05;;;13.50;99.90;;;;;;5053565;28;20083;-48
2022/05/26 02:34:18;;;;;;;35.92;8.50;;;14.30;99.90;;;;;;5053256;28;21038;-49
2022/05/26 02:36:46;;;;;;;43.10;8.20;;;13.40;99.90;;;;;;5053002;28;20048;-49
2022/05/26 02:39:12;;;;;;;39.55;9.43;;;14.10;99.90;;;;;;5053442;28;20539;-45
2022/05/26 02:41:39;;;;;;;40.47;8.10;;;13.10;99.90;;;;;;5053105;28;20123;-48
2022/05/26 02:44:06;;;;;;;39.95;9.23;;;13.10;99.90;;;;;;5052550;28;20525;-47
2022/05/26 02:47:26;;;;;;;41.28;7.97;;;12.40;99.90;;;;;;5053237;28;20090;-47
2022/05/26 02:50:02;;;;;;;33.45;7.53;;;13.00;99.90;;;;;;5010526;28;20045;-48
2022/05/26 02:53:04;;;;;;;37.83;7.80;;;12.90;99.90;;;;;;5011798;28;20087;-48
2022/05/26 02:55:48;;;;;;;;;;;12.90;99.90;;;;;;5011164;28;20593;-45
2022/05/26 02:58:30;;;;;;;31.83;7.10;;;12.80;99.90;;;;;;5011408;28;19925;-47
2022/05/26 03:01:21;;;;;;;31.50;6.72;;;13.30;99.90;;;;;;5013589;28;20057;-48
2022/05/26 03:03:51;;;;;;;21.92;6.07;;;12.70;99.90;;;;;;5011321;28;20510;-50
2022/05/26 03:06:25;;;;;;;30.13;6.43;;;13.00;99.90;;;;;;5012282;28;20049;-46
2022/05/26 03:08:54;;;;;;;27.33;6.18;;;12.90;99.90;;;;;;5011129;28;20910;-47
2022/05/26 03:11:22;;;;;;;23.38;5.53;;;12.80;99.90;;;;;;5011836;28;20124;-48
2022/05/26 03:13:50;;;;;;;24.92;4.68;;;12.80;99.90;;;;;;5011162;28;20053;-47
2022/05/26 03:16:18;;;;;;;23.30;4.55;;;12.90;99.90;;;;;;5011815;28;20118;-47
2022/05/26 03:18:43;;;;;;;16.95;4.15;;;12.80;99.90;;;;;;5011619;28;20666;-49
2022/05/26 03:21:10;;;;;;;18.90;3.20;;;12.80;99.90;;;;;;5010890;28;20321;-49
2022/05/26 03:23:37;;;;;;;13.65;3.15;;;12.80;99.90;;;;;;5010226;28;20477;-45
2022/05/26 03:26:04;;;;;;;14.10;3.53;;;12.70;99.90;;;;;;5034769;28;20114;-49
2022/05/26 03:28:31;;;;;;;18.10;3.40;;;13.80;99.90;;;;;;5052468;28;20199;-48
2022/05/26 03:30:57;;;;;;;12.15;2.80;;;14.90;99.90;;;;;;5053614;28;20057;-46
2022/05/26 03:33:23;;;;;;;17.13;2.30;;;13.70;99.90;;;;;;5051868;28;20040;-48
2022/05/26 03:41:24;;;;;;;12.85;1.95;;;12.90;99.90;;;;;;5052013;28;20618;-48
2022/05/26 03:43:54;;;;;;;10.93;1.88;;;12.70;99.90;;;;;;5051578;28;20037;-50
2022/05/26 03:46:19;;;;;;;9.80;2.20;;;13.90;99.90;;;;;;5052397;28;20272;-49
2022/05/26 03:48:45;;;;;;;9.45;1.63;;;14.60;99.90;;;;;;5052152;28;20624;-49
2022/05/26 03:51:13;;;;;;;10.88;1.70;;;12.80;99.90;;;;;;5052891;28;20105;-48
2022/05/26 03:53:38;;;;;;;13.93;1.92;;;13.70;99.90;;;;;;5052061;28;20048;-48
2022/05/26 03:56:05;;;;;;;9.88;1.80;;;10.60;99.90;;;;;;5051896;28;20040;-48
2022/05/26 03:58:31;;;;;;;11.25;1.90;;;12.70;99.90;;;;;;5051808;28;20034;-49
2022/05/26 04:01:02;;;;;;;12.85;2.10;;;12.60;99.90;;;;;;5052675;28;20044;-50
2022/05/26 04:03:28;;;;;;;7.68;1.60;;;12.60;99.90;;;;;;5051646;28;20782;-47
2022/05/26 04:05:55;;;;;;;12.05;2.33;;;14.80;99.90;;;;;;5049950;28;20033;-47
2022/05/26 04:08:21;;;;;;;14.20;2.30;;;12.60;99.90;;;;;;5051722;28;20155;-45
2022/05/26 04:10:47;;;;;;;9.00;1.58;;;12.60;99.90;;;;;;5052944;28;20348;-48
2022/05/26 04:13:13;;;;;;;10.27;2.13;;;12.60;99.90;;;;;;5050805;28;20409;-49
2022/05/26 04:15:39;;;;;;;12.95;1.80;;;12.80;99.90;;;;;;5051442;28;20056;-48
2022/05/26 04:18:04;;;;;;;11.35;2.40;;;13.40;99.90;;;;;;5050943;28;20554;-44
2022/05/26 04:20:32;;;;;;;12.40;2.45;;;12.60;99.90;;;;;;5052373;28;20243;-48
2022/05/26 04:22:58;;;;;;;8.77;1.75;;;15.00;99.90;;;;;;5049821;28;20560;-49
2022/05/26 04:25:25;;;;;;;10.35;2.35;;;12.50;99.90;;;;;;5052094;28;20052;-46
2022/05/26 04:27:53;;;;;;;10.38;2.33;;;12.40;99.90;;;;;;5053591;28;20060;-50
2022/05/26 04:30:20;;;;;;;8.27;1.70;;;13.30;99.90;;;;;;5056465;28;20470;-47
2022/05/26 04:32:46;;;;;;;9.45;1.73;;;13.20;99.90;;;;;;5057542;28;20112;-47
2022/05/26 04:35:12;;;;;;;13.88;3.33;;;14.30;99.90;;;;;;5057460;28;20127;-49
2022/05/26 04:37:38;;;;;;;11.07;1.88;;;12.70;99.90;;;;;;5055659;28;20036;-44
2022/05/26 04:40:06;;;;;;;9.48;1.67;;;12.80;99.90;;;;;;5056177;28;20482;-45
2022/05/26 04:42:32;;;;;;;9.82;2.00;;;13.10;99.90;;;;;;5057229;28;20045;-46
2022/05/26 04:44:58;;;;;;;9.63;1.73;;;14.00;99.90;;;;;;5055789;28;20055;-50
2022/05/26 04:47:25;;;;;;;10.02;1.65;;;13.10;99.90;;;;;;5055950;28;20052;-47
2022/05/26 04:49:50;;;;;;;14.70;2.00;;;13.90;99.90;;;;;;5055153;28;20093;-46
2022/05/26 04:52:19;;;;;;;8.88;1.70;;;13.10;99.90;;;;;;5056439;28;20657;-45
2022/05/26 04:54:46;;;;;;;8.68;1.63;;;14.20;99.90;;;;;;5056479;28;20040;-45
2022/05/26 04:57:14;;;;;;;10.15;1.85;;;13.20;99.90;;;;;;5056127;28;20072;-45
2022/05/26 04:59:42;;;;;;;11.82;1.65;;;14.10;99.90;;;;;;5055187;28;20048;-45
2022/05/26 05:02:12;;;;;;;11.80;2.05;;;13.20;99.90;;;;;;5054178;28;20044;-46
2022/05/26 05:04:41;;;;;;;15.48;1.88;;;13.30;99.90;;;;;;5054978;28;20082;-47
2022/05/26 05:07:09;;;;;;;10.98;1.52;;;13.30;99.90;;;;;;5055131;28;20044;-47
2022/05/26 05:09:39;;;;;;;12.13;2.78;;;14.70;99.90;;;;;;5055662;28;20041;-48
2022/05/26 05:12:08;;;;;;;15.20;1.77;;;13.40;99.90;;;;;;5054845;28;20076;-47
2022/05/26 05:14:41;;;;;;;8.55;1.58;;;13.50;99.90;;;;;;5053864;28;20040;-46
2022/05/26 05:17:07;;;;;;;8.73;1.55;;;13.70;99.90;;;;;;5054893;28;21720;-49
2022/05/26 05:19:32;;;;;;;8.82;1.48;;;14.90;99.90;;;;;;5055202;28;20078;-45
2022/05/26 05:22:07;;;;;;;10.13;1.80;;;13.70;99.90;;;;;;5054486;28;20212;-47
2022/05/26 05:25:01;;;;;;;7.32;1.30;;;13.80;99.90;;;;;;5054973;28;20044;-45
2022/05/26 05:27:33;;;;;;;11.05;1.50;;;14.00;99.90;;;;;;5054248;28;20075;-47
2022/05/26 05:30:04;;;;;;;10.48;1.58;;;14.10;99.90;;;;;;5054517;28;20044;-46
2022/05/26 05:32:37;;;;;;;7.57;1.40;;;14.20;99.90;;;;;;5055345;28;20055;-46
2022/05/26 05:35:08;;;;;;;7.25;1.77;;;14.90;99.90;;;;;;5055031;28;20048;-47
2022/05/26 05:37:34;;;;;;;11.73;2.10;;;14.10;99.90;;;;;;5054251;28;20028;-47
2022/05/26 05:40:01;;;;;;;6.90;1.17;;;14.50;99.90;;;;;;5052045;28;20464;-47
2022/05/26 05:42:29;;;;;;;10.98;1.42;;;15.00;99.90;;;;;;5051219;28;20048;-45
2022/05/26 05:44:54;;;;;;;8.02;1.63;;;14.70;99.90;;;;;;5050750;28;20563;-49
2022/05/26 05:47:20;;;;;;;7.22;1.67;;;14.40;99.90;;;;;;5052418;28;20032;-45
2022/05/26 05:49:48;;;;;;;9.30;1.45;;;15.00;99.90;;;;;;5053514;28;20036;-49
2022/05/26 05:52:21;;;;;;;10.30;1.67;;;14.60;99.90;;;;;;5052932;28;20188;-51
2022/05/26 05:54:46;;;;;;;10.88;1.67;;;14.80;99.90;;;;;;5053575;28;20603;-48
2022/05/26 05:57:12;;;;;;;11.48;1.60;;;15.60;99.90;;;;;;5050106;28;20091;-50
2022/05/26 05:59:38;;;;;;;10.85;1.50;;;14.80;99.90;;;;;;5054634;28;20423;-51
2022/05/26 06:02:06;;;;;;;7.03;1.20;;;14.90;99.90;;;;;;5051646;28;20075;-46
2022/05/26 06:04:41;;;;;;;6.03;1.00;;;14.90;99.90;;;;;;5051724;28;20576;-47
2022/05/26 06:07:27;;;;;;;8.68;1.10;;;15.00;99.90;;;;;;5053437;28;20498;-48
2022/05/26 06:09:53;;;;;;;9.57;1.73;;;15.10;99.90;;;;;;5052508;28;20390;-45
2022/05/26 06:12:19;;;;;;;11.90;1.40;;;17.30;99.90;;;;;;5055067;28;20453;-48
2022/05/26 06:14:46;;;;;;;5.88;1.10;;;17.20;99.90;;;;;;5084740;28;20040;-46
2022/05/26 06:17:13;;;;;;;5.93;1.02;;;16.20;99.90;;;;;;5053006;28;20045;-48
2022/05/26 06:19:41;;;;;;;7.22;1.33;;;16.50;99.90;;;;;;5053405;28;20036;-48
2022/05/26 06:22:17;;;;;;;8.80;1.92;;;16.80;99.90;;;;;;5050335;28;20037;-46
2022/05/26 06:24:46;;;;;;;10.63;1.63;;;17.00;99.90;;;;;;5050332;28;20056;-48
2022/05/26 06:29:59;;;;;;;8.05;1.45;;;17.30;99.90;;;;;;5052374;28;20245;-49
2022/05/26 06:37:55;;;;;;;9.63;1.30;;;18.00;99.90;;;;;;5053440;28;20163;-46
2022/05/26 06:40:21;;;;;;;9.82;1.40;;;17.50;99.90;;;;;;5051921;28;20045;-50
2022/05/26 06:42:48;;;;;;;6.85;1.63;;;17.00;99.90;;;;;;5050936;28;20033;-50
2022/05/26 06:45:16;;;;;;;7.18;1.23;;;18.20;99.90;;;;;;5054220;28;20810;-49
2022/05/26 06:47:42;;;;;;;6.82;1.25;;;16.90;99.90;;;;;;5053684;28;20040;-47
2022/05/26 06:50:10;;;;;;;4.35;0.93;;;17.70;99.90;;;;;;5052557;28;20527;-45
2022/05/26 06:52:36;;;;;;;8.15;1.15;;;16.50;99.90;;;;;;5052620;28;20511;-47
2022/05/26 06:55:05;;;;;;;6.70;1.15;;;16.20;99.90;;;;;;5053118;28;20032;-48
2022/05/26 06:57:31;;;;;;;6.32;1.25;;;15.90;99.90;;;;;;5053317;28;20094;-48
2022/05/26 06:59:57;;;;;;;5.25;1.08;;;15.80;99.90;;;;;;5054267;28;20052;-46
2022/05/26 07:02:25;;;;;;;12.15;1.58;;;17.70;99.90;;;;;;5054080;28;20048;-48
2022/05/26 07:04:51;;;;;;;5.05;1.00;;;15.80;99.90;;;;;;5052705;28;20083;-46
2022/05/26 07:07:17;;;;;;;6.25;1.25;;;15.70;99.90;;;;;;5054213;28;20331;-47
2022/05/26 07:09:45;;;;;;;6.80;1.30;;;17.40;99.90;;;;;;5053854;28;20033;-48
2022/05/26 07:12:11;;;;;;;7.45;1.20;;;15.90;99.90;;;;;;5052520;28;20520;-48
2022/05/26 07:14:37;;;;;;;6.93;1.38;;;15.90;99.90;;;;;;5051991;28;20114;-46
2022/05/26 07:17:05;;;;;;;8.90;1.25;;;16.20;99.90;;;;;;5053084;28;20524;-47
2022/05/26 07:19:36;;;;;;;5.53;1.23;;;18.40;99.90;;;;;;5051385;28;20053;-42
2022/05/26 07:22:02;;;;;;;5.90;0.98;;;19.10;99.90;;;;;;5050567;28;20145;-44
2022/05/26 07:24:30;;;;;;;8.02;1.40;;;16.70;99.90;;;;;;5049889;28;20036;-43
2022/05/26 07:26:55;;;;;;;6.47;1.17;;;17.00;99.90;;;;;;5049993;28;20055;-47
2022/05/26 07:29:21;;;;;;;11.60;1.33;;;17.00;99.90;;;;;;5049202;28;20044;-46
2022/05/26 07:31:47;;;;;;;11.73;1.15;;;16.60;99.90;;;;;;5049954;28;20229;-47
2022/05/26 07:34:13;;;;;;;8.40;1.50;;;16.50;99.90;;;;;;5051439;28;20036;-45
2022/05/26 07:42:11;;;;;;;8.68;1.65;;;16.40;99.90;;;;;;5052929;28;20796;-45
2022/05/26 07:44:44;;;;;;;6.65;1.55;;;16.10;99.90;;;;;;5051163;28;20068;-43
2022/05/26 07:47:10;;;;;;;9.57;1.23;;;18.10;99.90;;;;;;5051789;28;20080;-44
2022/05/26 07:49:38;;;;;;;5.05;1.23;;;18.00;99.90;;;;;;5051894;28;20040;-44
2022/05/26 07:52:05;;;;;;;8.73;1.60;;;16.00;99.90;;;;;;5050795;28;20075;-44
2022/05/26 07:54:31;;;;;;;13.25;1.88;;;16.10;99.90;;;;;;5052024;28;20501;-44
2022/05/26 07:56:58;;;;;;;6.03;1.35;;;16.30;99.90;;;;;;5050430;28;20067;-43
2022/05/26 07:59:24;;;;;;;7.28;1.40;;;16.30;99.90;;;;;;5052058;28;20045;-46
2022/05/26 08:01:50;;;;;;;8.43;1.35;;;17.20;99.90;;;;;;5051688;28;20405;-46
2022/05/26 08:04:18;;;;;;;7.75;1.20;;;17.50;99.90;;;;;;5052244;28;20555;-47
2022/05/26 08:06:46;;;;;;;8.27;1.25;;;19.30;99.90;;;;;;5052079;28;20047;-43
2022/05/26 08:09:17;;;;;;;7.60;1.30;;;20.10;99.90;;;;;;5052266;28;20039;-48
2022/05/26 08:11:43;;;;;;;9.90;1.58;;;19.10;99.90;;;;;;5050438;28;20906;-44
2022/05/26 08:14:09;;;;;;;9.13;1.55;;;19.90;99.90;;;;;;5046832;28;20084;-44
2022/05/26 08:16:35;;;;;;;8.73;1.27;;;17.80;99.90;;;;;;5052104;28;20127;-46
2022/05/26 08:19:04;;;;;;;7.10;1.25;;;17.30;99.90;;;;;;5052007;28;20062;-44
2022/05/26 08:21:30;;;;;;;10.55;1.75;;;18.70;99.90;;;;;;5052863;28;20813;-48
2022/05/26 08:23:55;;;;;;;9.32;1.15;;;17.70;99.90;;;;;;5053614;28;20127;-44
2022/05/26 08:26:23;;;;;;;11.50;1.42;;;18.00;99.90;;;;;;5052131;28;20233;-49
2022/05/26 08:28:49;;;;;;;4.32;1.20;;;18.40;99.90;;;;;;5051258;28;20623;-45
2022/05/26 08:31:15;;;;;;;9.25;1.23;;;19.10;99.90;;;;;;5052731;28;20028;-43
2022/05/26 08:33:42;;;;;;;7.28;1.40;;;18.40;99.90;;;;;;5054382;28;20053;-45
2022/05/26 08:36:16;;;;;;;7.47;1.55;;;18.10;99.90;;;;;;5052009;28;20093;-46
2022/05/26 08:38:44;;;;;;;6.78;1.08;;;18.10;99.90;;;;;;5051213;28;20579;-47
2022/05/26 08:41:16;;;;;;;5.80;1.55;;;19.80;99.90;;;;;;5051461;28;20052;-46
2022/05/26 08:44:04;;;;;;;8.93;1.55;;;20.00;99.90;;;;;;5052276;28;20516;-48
2022/05/26 08:46:43;;;;;;;15.63;1.30;;;18.20;99.90;;;;;;5051319;28;20056;-45
2022/05/26 08:49:19;;;;;;;8.55;1.52;;;18.90;99.90;;;;;;5052136;28;20102;-49
2022/05/26 08:52:06;;;;;;;6.18;1.08;;;19.40;99.90;;;;;;5051798;28;20052;-48
2022/05/26 08:54:37;;;;;;;6.50;1.25;;;19.90;99.90;;;;;;5050868;28;20041;-45
2022/05/26 08:57:06;;;;;;;8.43;1.60;;;20.20;99.90;;;;;;5050724;28;20040;-50
2022/05/26 08:59:39;;;;;;;7.10;1.60;;;20.40;99.90;;;;;;5050946;28;20051;-50
2022/05/26 09:02:34;;;;;;;7.20;1.35;;;20.90;99.90;;;;;;5051482;28;21069;-46
2022/05/26 09:05:10;;;;;;;6.18;0.70;;;22.60;99.90;;;;;;5051007;28;20059;-47
2022/05/26 09:13:14;;;;;;;5.95;1.05;;;20.70;99.90;;;;;;5050984;28;20059;-49
2022/05/26 09:15:40;;;;;;;7.20;1.50;;;20.70;99.90;;;;;;5054617;28;20739;-44
2022/05/26 09:18:19;;;;;;;7.65;1.20;;;20.60;99.90;;;;;;5054582;28;20071;-48
2022/05/26 09:20:50;;;;;;;7.40;1.40;;;20.60;99.90;;;;;;5054053;28;20368;-47
2022/05/26 09:23:28;;;;;;;7.45;1.27;;;21.30;99.90;;;;;;5055093;28;20029;-46
2022/05/26 09:26:07;;;;;;;3.72;0.85;;;21.50;99.90;;;;;;5055098;28;20465;-46
2022/05/26 09:28:51;;;;;;;7.53;1.42;;;20.00;99.90;;;;;;5055506;28;20047;-47
2022/05/26 09:31:29;;;;;;;5.82;1.02;;;21.20;99.90;;;;;;5054427;28;20036;-44
2022/05/26 09:34:10;;;;;;;5.93;1.60;;;19.90;99.90;;;;;;5054378;28;20040;-47
2022/05/26 09:36:36;;;;;;;4.30;0.90;;;20.00;99.90;;;;;;5055343;28;20039;-43
2022/05/26 09:39:03;;;;;;;5.43;1.10;;;20.10;99.90;;;;;;5086668;28;20471;-45
2022/05/26 09:41:41;;;;;;;11.65;1.15;;;20.00;99.90;;;;;;5054071;28;20036;-46
2022/05/26 09:44:21;;;;;;;4.55;0.88;;;20.10;99.90;;;;;;5054944;28;20128;-45
2022/05/26 09:46:51;;;;;;;5.70;1.42;;;19.90;99.90;;;;;;5055020;28;20055;-45
2022/05/26 09:49:18;;;;;;;4.65;0.95;;;19.40;99.90;;;;;;5055072;28;20036;-43
2022/05/26 09:51:45;;;;;;;6.10;0.90;;;19.60;99.90;;;;;;5054114;28;20094;-46
2022/05/26 09:54:28;;;;;;;7.30;1.13;;;20.00;99.90;;;;;;5053552;28;20036;-47
2022/05/26 09:56:53;;;;;;;6.38;1.02;;;20.30;99.90;;;;;;5054771;28;20056;-44
2022/05/26 09:59:31;;;;;;;6.70;0.98;;;20.30;99.90;;;;;;5053425;28;21163;-45
2022/05/26 10:02:02;;;;;;;3.60;0.77;;;20.00;99.90;;;;;;5054424;28;20074;-46
2022/05/26 10:04:49;;;;;;;6.95;1.17;;;20.30;99.90;;;;;;5053440;28;20101;-45
2022/05/26 10:07:46;;;;;;;4.85;0.90;;;20.00;99.90;;;;;;5054078;28;20032;-48
2022/05/26 10:10:28;;;;;;;5.65;1.10;;;19.60;99.90;;;;;;5011202;28;20061;-43
2022/05/26 10:13:16;;;;;;;4.38;1.00;;;19.10;99.90;;;;;;4994416;28;20041;-47
2022/05/26 10:15:48;;;;;;;5.95;0.93;;;18.80;99.90;;;;;;5010741;28;20355;-45
2022/05/26 10:18:35;;;;;;;7.15;0.90;;;18.90;99.90;;;;;;5011310;28;20092;-44
2022/05/26 10:21:27;;;;;;;7.10;1.27;;;19.40;99.90;;;;;;5009582;28;20215;-46
2022/05/26 10:23:58;;;;;;;5.05;1.10;;;18.90;99.90;;;;;;4951398;28;21079;-45
2022/05/26 10:26:41;;;;;;;6.03;0.98;;;18.90;99.90;;;;;;4951632;28;20732;-48
2022/05/26 10:29:37;;;;;;;6.43;1.27;;;18.70;99.90;;;;;;4951946;28;20051;-47
2022/05/26 10:32:31;;;;;;;4.60;1.30;;;18.40;99.90;;;;;;4951825;28;20054;-47
2022/05/26 10:34:59;;;;;;;4.63;1.35;;;18.30;99.90;;;;;;4952849;28;20073;-46
2022/05/26 10:37:50;;;;;;;4.93;0.75;;;18.20;99.90;;;;;;4950923;28;20047;-49
2022/05/26 10:40:31;;;;;;;10.70;1.15;;;18.60;99.90;;;;;;4950843;28;20633;-45
2022/05/26 10:43:31;;;;;;;12.82;1.02;;;18.90;99.90;;;;;;4951538;28;20643;-44
2022/05/26 10:45:59;;;;;;;4.93;0.80;;;19.00;99.90;;;;;;4952174;28;20069;-46
2022/05/26 10:48:39;;;;;;;7.07;1.00;;;18.90;99.90;;;;;;4970032;28;20282;-46
2022/05/26 10:51:09;;;;;;;4.60;0.88;;;19.00;99.90;;;;;;4971625;28;20084;-48
2022/05/26 10:53:46;;;;;;;9.95;1.40;;;19.70;99.90;;;;;;4973250;28;20477;-47
2022/05/26 10:56:36;;;;;;;7.13;1.08;;;20.90;99.90;;;;;;4971356;28;20053;-44
2022/05/26 10:59:33;;;;;;;5.63;0.95;;;20.50;99.90;;;;;;4970829;28;20172;-50
2022/05/26 11:02:09;;;;;;;8.57;1.30;;;20.70;99.90;;;;;;5043291;28;20129;-44
2022/05/26 11:04:54;;;;;;;9.23;2.33;;;20.30;99.90;;;;;;5054049;28;20036;-48
2022/05/26 11:07:43;;;;;;;8.57;1.20;;;20.30;99.90;;;;;;5054070;28;20365;-47
2022/05/26 11:10:22;;;;;;;8.10;1.70;;;22.10;99.90;;;;;;5051965;28;20040;-45
2022/05/26 11:12:54;;;;;;;7.15;1.50;;;19.90;99.90;;;;;;5054284;28;20032;-50
2022/05/26 11:18:28;;;;;;;7.70;1.20;;;19.90;99.90;;;;;;5053473;28;20060;-49
2022/05/26 11:20:54;;;;;;;;;;;19.90;99.90;;;;;;5053256;28;20056;-48
2022/05/26 11:23:25;;;;;;;6.00;1.30;;;20.00;99.90;;;;;;5052072;28;20459;-45
2022/05/26 11:26:08;;;;;;;7.07;1.08;;;20.40;99.90;;;;;;5052156;28;20043;-46
2022/05/26 11:28:59;;;;;;;7.50;1.38;;;20.80;99.90;;;;;;5052022;28;20340;-48
2022/05/26 11:37:27;;;;;;;13.88;1.75;;;22.20;99.90;;;;;;5050945;28;20102;-49
2022/05/26 11:39:57;;;;;;;8.18;1.83;;;21.10;99.90;;;;;;5051963;28;20067;-46
2022/05/26 11:42:46;;;;;;;5.63;1.00;;;19.70;99.90;;;;;;5051953;28;20837;-46
2022/05/26 11:45:25;;;;;;;7.82;1.20;;;19.70;99.90;;;;;;5053187;28;20620;-45
2022/05/26 11:47:58;;;;;;;5.38;1.00;;;19.90;99.90;;;;;;5051292;28;20033;-46
2022/05/26 11:51:00;;;;;;;9.25;1.42;;;19.90;99.90;;;;;;5051306;28;20044;-48
2022/05/26 11:53:47;;;;;;;8.05;1.60;;;19.60;99.90;;;;;;5029525;28;20660;-47
2022/05/26 11:56:29;;;;;;;5.63;1.33;;;19.50;99.90;;;;;;5028284;28;20191;-45
2022/05/26 11:59:19;;;;;;;7.70;1.33;;;19.60;99.90;;;;;;5028939;28;20085;-49
2022/05/26 12:01:59;;;;;;;4.50;1.13;;;19.40;99.90;;;;;;5029542;28;20087;-45
2022/05/26 12:04:31;;;;;;;11.13;2.03;;;19.40;99.90;;;;;;5031135;28;20138;-49
2022/05/26 12:07:03;;;;;;;6.85;1.20;;;19.30;99.90;;;;;;5028401;28;20136;-44
2022/05/26 12:09:52;;;;;;;6.30;1.40;;;19.20;99.90;;;;;;5029652;28;20041;-43
2022/05/26 12:12:17;;;;;;;11.82;1.40;;;18.80;99.90;;;;;;5030409;28;20184;-48
2022/05/26 12:14:46;;;;;;;5.78;1.55;;;18.90;99.90;;;;;;5029153;28;20049;-44
2022/05/26 12:17:23;;;;;;;11.15;1.95;;;18.70;99.90;;;;;;5030330;28;20049;-46
2022/05/26 12:19:49;;;;;;;9.75;1.77;;;18.50;99.90;;;;;;5029366;28;20040;-44
2022/05/26 12:22:25;;;;;;;11.00;2.10;;;18.40;99.90;;;;;;5030071;28;20101;-44
2022/05/26 12:25:04;;;;;;;8.60;1.58;;;18.40;99.90;;;;;;5029365;28;20078;-46
2022/05/26 12:27:48;;;;;;;7.32;1.63;;;20.50;99.90;;;;;;5028987;28;20800;-43
2022/05/26 12:30:46;;;;;;;9.80;1.63;;;18.60;99.90;;;;;;5052357;28;20131;-43
2022/05/26 12:33:23;;;;;;;7.57;1.75;;;18.60;99.90;;;;;;5051587;28;20040;-46
2022/05/26 12:36:21;;;;;;;9.82;1.42;;;18.70;99.90;;;;;;5052058;28;20044;-45
2022/05/26 12:39:28;;;;;;;6.90;1.10;;;18.70;99.90;;;;;;5050046;28;20110;-49
2022/05/26 12:42:20;;;;;;;10.00;1.58;;;18.50;99.90;;;;;;5051062;28;20033;-47
2022/05/26 12:45:20;;;;;;;7.82;1.10;;;18.10;99.90;;;;;;5051203;28;20245;-45
2022/05/26 12:48:02;;;;;;;8.45;1.40;;;18.00;99.90;;;;;;4967028;28;20081;-45
2022/05/26 12:50:31;;;;;;;5.05;1.00;;;17.90;99.90;;;;;;4988344;28;20080;-46
2022/05/26 12:53:00;;;;;;;5.57;1.10;;;17.80;99.90;;;;;;4987437;28;20062;-44
2022/05/26 12:55:47;;;;;;;6.07;1.40;;;18.70;99.90;;;;;;4989206;28;20070;-45
2022/05/26 12:58:20;;;;;;;8.25;1.40;;;19.50;99.90;;;;;;4992548;28;20058;-47
2022/05/26 13:01:03;;;;;;;7.93;1.10;;;18.70;99.90;;;;;;4991874;28;20050;-45
2022/05/26 13:03:38;;;;;;;9.93;1.30;;;18.00;99.90;;;;;;4989073;28;20038;-47
2022/05/26 13:06:20;;;;;;;6.13;1.10;;;18.20;99.90;;;;;;4988693;28;20143;-43
2022/05/26 13:09:09;;;;;;;9.43;1.23;;;18.00;99.90;;;;;;4988428;28;20242;-47
2022/05/26 13:11:53;;;;;;;5.95;1.20;;;18.10;99.90;;;;;;4953038;28;20051;-49
2022/05/26 13:14:38;;;;;;;6.45;1.52;;;18.10;99.90;;;;;;4952497;28;20057;-46
2022/05/26 13:17:16;;;;;;;6.22;1.10;;;18.00;99.90;;;;;;4951225;28;20054;-46
2022/05/26 13:19:44;;;;;;;8.20;1.45;;;17.10;99.90;;;;;;4952813;28;20628;-44
2022/05/26 13:22:31;;;;;;;6.85;1.23;;;18.20;99.90;;;;;;4953298;28;20358;-49
2022/05/26 13:25:10;;;;;;;7.78;1.70;;;17.80;99.90;;;;;;4980758;28;20077;-49
2022/05/26 13:28:11;;;;;;;8.05;1.20;;;18.00;99.90;;;;;;4987917;28;20052;-49
2022/05/26 13:33:49;;;;;;;7.82;1.42;;;18.30;99.90;;;;;;4931912;29;20106;-46
2022/05/26 13:36:31;;;;;;;8.50;1.40;;;18.10;99.90;;;;;;4935309;29;20586;-45
2022/05/26 13:39:04;;;;;;;;;;;18.20;99.90;;;;;;4934202;29;20071;-45
2022/05/26 13:41:30;;;;;;;9.02;1.20;;;18.10;99.90;;;;;;4933530;29;19934;-48
2022/05/26 13:43:57;;;;;;;8.07;1.50;;;19.00;99.90;;;;;;4931262;29;20130;-46
2022/05/26 13:46:28;;;;;;;9.95;1.73;;;18.70;99.90;;;;;;4918354;29;20504;-45
2022/05/26 13:48:55;;;;;;;8.00;1.50;;;17.90;99.90;;;;;;4954789;28;20058;-44
2022/05/26 13:51:29;;;;;;;7.90;1.30;;;20.00;99.90;;;;;;4972120;28;20065;-48
2022/05/26 13:54:19;;;;;;;8.25;1.50;;;18.20;99.90;;;;;;4969560;28;20049;-47
2022/05/26 13:56:47;;;;;;;7.38;1.38;;;18.10;99.90;;;;;;4956966;28;20507;-45